sensor_id;sensor_type;location;lat;lon;timestamp;pressure;altitude;pressure_sealevel;temperature;humidity
81125;BME280;72192;52.114;5.424;2023-12-28T00:02:26;100892.88;;;9.77;100.00
81125;BME280;72192;52.114;5.424;2023-12-28T00:05:06;100886.81;;;9.75;100.00
81125;BME280;72192;52.114;5.424;2023-12-28T00:07:45;100878.00;;;9.73;100.00
81125;BME280;72192;52.114;5.424;2023-12-28T00:10:27;100890.53;;;9.82;100.00
81125;BME280;72192;52.114;5.424;2023-12-28T00:13:07;100890.94;;;9.87;100.00
81125;BME280;72192;52.114;5.424;2023-12-28T00:15:47;100906.78;;;9.90;100.00
81125;BME280;72192;52.114;5.424;2023-12-28T00:18:27;100905.44;;;9.86;100.00
81125;BME280;72192;52.114;5.424;2023-12-28T00:21:07;100919.38;;;9.82;100.00
81125;BME280;72192;52.114;5.424;2023-12-28T00:23:47;100917.00;;;9.78;100.00
81125;BME280;72192;52.114;5.424;2023-12-28T00:26:27;100920.91;;;9.84;100.00
81125;BME280;72192;52.114;5.424;2023-12-28T00:29:07;100926.16;;;9.86;100.00
81125;BME280;72192;52.114;5.424;2023-12-28T00:31:47;100925.50;;;9.92;100.00
81125;BME280;72192;52.114;5.424;2023-12-28T00:34:27;100921.06;;;9.83;100.00
81125;BME280;72192;52.114;5.424;2023-12-28T00:37:06;100924.47;;;9.85;100.00
81125;BME280;72192;52.114;5.424;2023-12-28T00:39:50;100940.47;;;9.86;100.00
81125;BME280;72192;52.114;5.424;2023-12-28T00:42:29;100955.81;;;9.86;100.00
81125;BME280;72192;52.114;5.424;2023-12-28T00:45:10;100950.03;;;9.81;100.00
81125;BME280;72192;52.114;5.424;2023-12-28T00:47:53;100948.09;;;9.73;100.00
81125;BME280;72192;52.114;5.424;2023-12-28T00:50:35;100959.78;;;9.73;100.00
81125;BME280;72192;52.114;5.424;2023-12-28T00:53:15;100961.91;;;9.70;100.00
81125;BME280;72192;52.114;5.424;2023-12-28T00:55:56;100953.66;;;9.71;100.00
81125;BME280;72192;52.114;5.424;2023-12-28T00:58:39;100957.19;;;9.72;100.00
81125;BME280;72192;52.114;5.424;2023-12-28T01:01:21;100962.06;;;9.68;100.00
81125;BME280;72192;52.114;5.424;2023-12-28T01:04:01;100960.38;;;9.67;100.00
81125;BME280;72192;52.114;5.424;2023-12-28T01:06:41;100948.91;;;9.65;100.00
81125;BME280;72192;52.114;5.424;2023-12-28T01:09:21;100948.91;;;9.65;100.00
81125;BME280;72192;52.114;5.424;2023-12-28T01:12:04;100951.22;;;9.60;100.00
81125;BME280;72192;52.114;5.424;2023-12-28T01:14:44;100940.75;;;9.57;100.00
81125;BME280;72192;52.114;5.424;2023-12-28T01:17:24;100954.66;;;9.53;100.00
81125;BME280;72192;52.114;5.424;2023-12-28T01:20:05;100956.69;;;9.51;100.00
81125;BME280;72192;52.114;5.424;2023-12-28T01:22:45;100947.91;;;9.48;100.00
81125;BME280;72192;52.114;5.424;2023-12-28T01:25:27;100952.63;;;9.46;100.00
81125;BME280;72192;52.114;5.424;2023-12-28T01:28:07;100959.00;;;9.45;100.00
81125;BME280;72192;52.114;5.424;2023-12-28T01:30:49;100965.09;;;9.47;100.00
81125;BME280;72192;52.114;5.424;2023-12-28T01:33:29;100970.31;;;9.49;100.00
81125;BME280;72192;52.114;5.424;2023-12-28T01:36:19;100979.25;;;9.49;100.00
81125;BME280;72192;52.114;5.424;2023-12-28T01:39:00;100968.94;;;9.45;100.00
81125;BME280;72192;52.114;5.424;2023-12-28T01:41:40;100961.13;;;9.42;100.00
81125;BME280;72192;52.114;5.424;2023-12-28T01:44:20;100971.06;;;9.41;100.00
81125;BME280;72192;52.114;5.424;2023-12-28T01:47:00;100960.13;;;9.43;100.00
81125;BME280;72192;52.114;5.424;2023-12-28T01:49:40;100963.84;;;9.42;100.00
81125;BME280;72192;52.114;5.424;2023-12-28T01:52:20;100962.31;;;9.39;100.00
81125;BME280;72192;52.114;5.424;2023-12-28T01:55:00;100957.06;;;9.38;100.00
81125;BME280;72192;52.114;5.424;2023-12-28T01:57:40;100971.69;;;9.35;100.00
81125;BME280;72192;52.114;5.424;2023-12-28T02:00:22;100957.59;;;9.41;100.00
81125;BME280;72192;52.114;5.424;2023-12-28T02:03:02;100966.69;;;9.40;100.00
81125;BME280;72192;52.114;5.424;2023-12-28T02:05:42;100978.78;;;9.36;100.00
81125;BME280;72192;52.114;5.424;2023-12-28T02:08:22;100976.25;;;9.35;100.00
81125;BME280;72192;52.114;5.424;2023-12-28T02:11:03;100974.69;;;9.32;100.00
81125;BME280;72192;52.114;5.424;2023-12-28T02:13:43;100975.41;;;9.34;100.00
81125;BME280;72192;52.114;5.424;2023-12-28T02:16:37;100969.84;;;9.36;100.00
81125;BME280;72192;52.114;5.424;2023-12-28T02:22:35;100968.69;;;9.38;100.00
81125;BME280;72192;52.114;5.424;2023-12-28T02:25:15;100968.16;;;9.35;100.00
81125;BME280;72192;52.114;5.424;2023-12-28T02:27:55;100955.22;;;9.38;100.00
81125;BME280;72192;52.114;5.424;2023-12-28T02:30:35;100946.44;;;9.36;100.00
81125;BME280;72192;52.114;5.424;2023-12-28T02:36:09;100949.59;;;9.49;100.00
81125;BME280;72192;52.114;5.424;2023-12-28T02:38:51;100940.50;;;9.51;100.00
81125;BME280;72192;52.114;5.424;2023-12-28T02:41:35;100955.06;;;9.58;100.00
81125;BME280;72192;52.114;5.424;2023-12-28T02:44:15;100941.66;;;9.66;100.00
81125;BME280;72192;52.114;5.424;2023-12-28T02:46:57;100932.91;;;9.64;100.00
81125;BME280;72192;52.114;5.424;2023-12-28T02:49:37;100934.09;;;9.69;100.00
81125;BME280;72192;52.114;5.424;2023-12-28T02:52:17;100936.03;;;9.77;100.00
81125;BME280;72192;52.114;5.424;2023-12-28T02:54:57;100935.34;;;9.75;100.00
81125;BME280;72192;52.114;5.424;2023-12-28T02:57:38;100928.72;;;9.69;100.00
81125;BME280;72192;52.114;5.424;2023-12-28T03:00:18;100912.69;;;9.68;100.00
81125;BME280;72192;52.114;5.424;2023-12-28T03:02:58;100928.63;;;9.61;100.00
81125;BME280;72192;52.114;5.424;2023-12-28T03:05:38;100940.25;;;9.62;100.00
81125;BME280;72192;52.114;5.424;2023-12-28T03:08:19;100927.19;;;9.67;100.00
81125;BME280;72192;52.114;5.424;2023-12-28T03:10:59;100924.00;;;9.71;100.00
81125;BME280;72192;52.114;5.424;2023-12-28T03:13:39;100939.19;;;9.72;100.00
81125;BME280;72192;52.114;5.424;2023-12-28T03:16:19;100942.19;;;9.69;100.00
81125;BME280;72192;52.114;5.424;2023-12-28T03:18:59;100943.72;;;9.72;100.00
81125;BME280;72192;52.114;5.424;2023-12-28T03:21:40;100938.41;;;9.80;99.69
81125;BME280;72192;52.114;5.424;2023-12-28T03:24:20;100934.94;;;9.88;99.50
81125;BME280;72192;52.114;5.424;2023-12-28T03:27:00;100925.66;;;9.90;99.54
81125;BME280;72192;52.114;5.424;2023-12-28T03:29:43;100936.28;;;9.92;99.34
81125;BME280;72192;52.114;5.424;2023-12-28T03:32:23;100938.88;;;10.01;98.51
81125;BME280;72192;52.114;5.424;2023-12-28T03:35:04;100935.91;;;10.04;98.42
81125;BME280;72192;52.114;5.424;2023-12-28T03:37:44;100931.50;;;10.03;98.05
81125;BME280;72192;52.114;5.424;2023-12-28T03:40:23;100921.06;;;10.09;98.04
81125;BME280;72192;52.114;5.424;2023-12-28T03:43:03;100903.81;;;10.01;98.02
81125;BME280;72192;52.114;5.424;2023-12-28T03:45:45;100927.97;;;10.03;98.26
81125;BME280;72192;52.114;5.424;2023-12-28T03:48:27;100918.06;;;10.12;97.40
81125;BME280;72192;52.114;5.424;2023-12-28T03:51:06;100912.13;;;10.08;97.52
81125;BME280;72192;52.114;5.424;2023-12-28T03:53:46;100918.53;;;10.07;97.32
81125;BME280;72192;52.114;5.424;2023-12-28T03:56:27;100917.38;;;10.10;97.28
81125;BME280;72192;52.114;5.424;2023-12-28T03:59:09;100917.88;;;10.05;97.35
81125;BME280;72192;52.114;5.424;2023-12-28T04:01:49;100915.31;;;10.03;97.34
81125;BME280;72192;52.114;5.424;2023-12-28T04:04:29;100909.88;;;9.95;97.74
81125;BME280;72192;52.114;5.424;2023-12-28T04:07:09;100908.53;;;9.99;97.43
81125;BME280;72192;52.114;5.424;2023-12-28T04:09:49;100905.31;;;9.96;97.64
81125;BME280;72192;52.114;5.424;2023-12-28T04:12:29;100916.06;;;9.88;98.12
81125;BME280;72192;52.114;5.424;2023-12-28T04:15:09;100921.78;;;9.85;98.07
81125;BME280;72192;52.114;5.424;2023-12-28T04:17:49;100917.69;;;9.81;98.15
81125;BME280;72192;52.114;5.424;2023-12-28T04:20:29;100925.50;;;9.92;97.64
81125;BME280;72192;52.114;5.424;2023-12-28T04:23:16;100931.91;;;9.91;97.80
81125;BME280;72192;52.114;5.424;2023-12-28T04:25:58;100922.91;;;9.82;98.16
81125;BME280;72192;52.114;5.424;2023-12-28T04:28:39;100924.56;;;9.75;98.06
81125;BME280;72192;52.114;5.424;2023-12-28T04:31:20;100931.16;;;9.81;98.20
81125;BME280;72192;52.114;5.424;2023-12-28T04:34:00;100918.69;;;9.80;98.07
81125;BME280;72192;52.114;5.424;2023-12-28T04:36:42;100924.06;;;9.80;97.92
81125;BME280;72192;52.114;5.424;2023-12-28T04:39:23;100925.16;;;9.87;97.54
81125;BME280;72192;52.114;5.424;2023-12-28T04:42:03;100917.28;;;9.93;97.25
81125;BME280;72192;52.114;5.424;2023-12-28T04:44:43;100936.53;;;9.98;97.05
81125;BME280;72192;52.114;5.424;2023-12-28T04:47:23;100940.69;;;9.93;97.19
81125;BME280;72192;52.114;5.424;2023-12-28T04:50:05;100917.28;;;9.93;96.81
81125;BME280;72192;52.114;5.424;2023-12-28T04:52:47;100920.66;;;9.95;96.65
81125;BME280;72192;52.114;5.424;2023-12-28T04:55:27;100926.06;;;9.95;96.92
81125;BME280;72192;52.114;5.424;2023-12-28T04:58:07;100926.25;;;10.02;96.56
81125;BME280;72192;52.114;5.424;2023-12-28T05:00:50;100918.53;;;10.07;95.70
81125;BME280;72192;52.114;5.424;2023-12-28T05:03:31;100914.69;;;10.10;95.36
81125;BME280;72192;52.114;5.424;2023-12-28T05:06:11;100918.59;;;10.15;94.86
81125;BME280;72192;52.114;5.424;2023-12-28T05:08:51;100940.34;;;10.14;94.83
81125;BME280;72192;52.114;5.424;2023-12-28T05:11:33;100923.31;;;10.13;94.65
81125;BME280;72192;52.114;5.424;2023-12-28T05:14:14;100917.59;;;10.16;94.71
81125;BME280;72192;52.114;5.424;2023-12-28T05:16:53;100941.19;;;10.14;94.60
81125;BME280;72192;52.114;5.424;2023-12-28T05:19:33;100946.44;;;10.16;94.64
81125;BME280;72192;52.114;5.424;2023-12-28T05:22:13;100925.53;;;10.18;94.17
81125;BME280;72192;52.114;5.424;2023-12-28T05:24:53;100936.56;;;10.24;93.42
81125;BME280;72192;52.114;5.424;2023-12-28T05:27:37;100944.16;;;10.29;93.33
81125;BME280;72192;52.114;5.424;2023-12-28T05:30:17;100931.34;;;10.31;92.76
81125;BME280;72192;52.114;5.424;2023-12-28T05:32:57;100929.16;;;10.26;92.74
81125;BME280;72192;52.114;5.424;2023-12-28T05:35:37;100932.75;;;10.35;92.65
81125;BME280;72192;52.114;5.424;2023-12-28T05:38:18;100941.84;;;10.34;92.53
81125;BME280;72192;52.114;5.424;2023-12-28T05:40:57;100936.63;;;10.32;92.33
81125;BME280;72192;52.114;5.424;2023-12-28T05:43:40;100935.75;;;10.32;92.71
81125;BME280;72192;52.114;5.424;2023-12-28T05:46:19;100952.16;;;10.39;92.08
81125;BME280;72192;52.114;5.424;2023-12-28T05:49:01;100930.56;;;10.39;92.06
81125;BME280;72192;52.114;5.424;2023-12-28T05:51:41;100947.31;;;10.42;91.68
81125;BME280;72192;52.114;5.424;2023-12-28T05:54:21;100930.44;;;10.48;91.25
81125;BME280;72192;52.114;5.424;2023-12-28T05:57:02;100941.75;;;10.44;91.59
81125;BME280;72192;52.114;5.424;2023-12-28T05:59:44;100932.25;;;10.40;91.70
81125;BME280;72192;52.114;5.424;2023-12-28T06:02:25;100928.91;;;10.46;91.65
81125;BME280;72192;52.114;5.424;2023-12-28T06:05:07;100908.34;;;10.45;91.14
81125;BME280;72192;52.114;5.424;2023-12-28T06:07:47;100949.84;;;10.52;91.03
81125;BME280;72192;52.114;5.424;2023-12-28T06:10:28;100955.59;;;10.49;91.23
81125;BME280;72192;52.114;5.424;2023-12-28T06:13:07;100950.03;;;10.50;91.11
81125;BME280;72192;52.114;5.424;2023-12-28T06:15:47;100952.72;;;10.50;91.19
81125;BME280;72192;52.114;5.424;2023-12-28T06:18:27;100948.66;;;10.46;91.25
81125;BME280;72192;52.114;5.424;2023-12-28T06:21:08;100947.31;;;10.50;91.15
81125;BME280;72192;52.114;5.424;2023-12-28T06:23:48;100951.56;;;10.53;90.58
81125;BME280;72192;52.114;5.424;2023-12-28T06:26:28;100942.47;;;10.54;90.91
81125;BME280;72192;52.114;5.424;2023-12-28T06:29:09;100945.34;;;10.52;90.84
81125;BME280;72192;52.114;5.424;2023-12-28T06:31:49;100965.91;;;10.53;90.55
81125;BME280;72192;52.114;5.424;2023-12-28T06:34:30;100965.91;;;10.53;90.94
81125;BME280;72192;52.114;5.424;2023-12-28T06:37:09;100971.63;;;10.50;90.83
81125;BME280;72192;52.114;5.424;2023-12-28T06:39:49;100977.19;;;10.49;90.76
81125;BME280;72192;52.114;5.424;2023-12-28T06:42:30;100979.88;;;10.49;90.72
81125;BME280;72192;52.114;5.424;2023-12-28T06:45:12;100968.06;;;10.50;90.86
81125;BME280;72192;52.114;5.424;2023-12-28T06:47:52;100987.66;;;10.52;90.64
81125;BME280;72192;52.114;5.424;2023-12-28T06:50:32;100981.09;;;10.54;90.29
81125;BME280;72192;52.114;5.424;2023-12-28T06:53:12;100983.81;;;10.54;90.67
81125;BME280;72192;52.114;5.424;2023-12-28T06:55:52;100975.38;;;10.57;89.90
81125;BME280;72192;52.114;5.424;2023-12-28T06:58:33;100983.47;;;10.57;90.26
81125;BME280;72192;52.114;5.424;2023-12-28T07:01:15;100979.09;;;10.56;90.09
81125;BME280;72192;52.114;5.424;2023-12-28T07:03:58;100976.56;;;10.55;90.29
81125;BME280;72192;52.114;5.424;2023-12-28T07:06:43;100978.25;;;10.56;89.86
81125;BME280;72192;52.114;5.424;2023-12-28T07:09:25;100980.56;;;10.51;90.51
81125;BME280;72192;52.114;5.424;2023-12-28T07:12:06;100992.88;;;10.45;90.63
81125;BME280;72192;52.114;5.424;2023-12-28T07:14:46;100994.88;;;10.43;91.02
81125;BME280;72192;52.114;5.424;2023-12-28T07:17:46;101001.75;;;10.38;90.88
81125;BME280;72192;52.114;5.424;2023-12-28T07:20:31;100988.69;;;10.25;91.38
81125;BME280;72192;52.114;5.424;2023-12-28T07:25:58;101010.34;;;10.15;91.87
81125;BME280;72192;52.114;5.424;2023-12-28T07:28:37;101019.97;;;10.18;92.06
81125;BME280;72192;52.114;5.424;2023-12-28T07:31:24;101011.19;;;10.16;92.32
81125;BME280;72192;52.114;5.424;2023-12-28T07:34:06;101015.19;;;10.12;92.19
81125;BME280;72192;52.114;5.424;2023-12-28T07:36:47;101022.22;;;10.04;92.75
81125;BME280;72192;52.114;5.424;2023-12-28T07:39:30;101042.03;;;9.95;93.08
81125;BME280;72192;52.114;5.424;2023-12-28T07:42:12;101034.47;;;9.99;93.29
81125;BME280;72192;52.114;5.424;2023-12-28T07:44:56;101036.72;;;10.03;93.00
81125;BME280;72192;52.114;5.424;2023-12-28T07:47:36;101031.69;;;10.09;93.09
81125;BME280;72192;52.114;5.424;2023-12-28T07:50:16;101046.72;;;10.11;92.60
81125;BME280;72192;52.114;5.424;2023-12-28T07:52:56;101052.81;;;10.13;92.55
81125;BME280;72192;52.114;5.424;2023-12-28T07:55:36;101061.97;;;10.20;92.33
81125;BME280;72192;52.114;5.424;2023-12-28T07:58:16;101060.91;;;10.31;91.97
81125;BME280;72192;52.114;5.424;2023-12-28T08:01:08;101060.59;;;10.34;91.65
81125;BME280;72192;52.114;5.424;2023-12-28T08:03:57;101071.94;;;10.38;91.72
81125;BME280;72192;52.114;5.424;2023-12-28T08:06:47;101043.25;;;10.37;91.71
81125;BME280;72192;52.114;5.424;2023-12-28T08:09:26;101059.22;;;10.30;92.41
81125;BME280;72192;52.114;5.424;2023-12-28T08:12:06;101050.25;;;10.29;91.94
81125;BME280;72192;52.114;5.424;2023-12-28T08:14:47;101050.09;;;10.31;91.85
81125;BME280;72192;52.114;5.424;2023-12-28T08:17:26;101032.78;;;10.33;91.52
81125;BME280;72192;52.114;5.424;2023-12-28T08:20:06;101033.78;;;10.32;92.05
81125;BME280;72192;52.114;5.424;2023-12-28T08:22:46;101031.44;;;10.38;91.27
81125;BME280;72192;52.114;5.424;2023-12-28T08:25:26;101009.38;;;10.42;90.87
81125;BME280;72192;52.114;5.424;2023-12-28T08:28:06;101031.19;;;10.49;90.58
81125;BME280;72192;52.114;5.424;2023-12-28T08:30:41;101058.16;;;10.49;90.75
81125;BME280;72192;52.114;5.424;2023-12-28T08:33:20;101036.56;;;10.49;90.85
81125;BME280;72192;52.114;5.424;2023-12-28T08:36:06;101052.94;;;10.47;91.11
81125;BME280;72192;52.114;5.424;2023-12-28T08:38:49;101058.34;;;10.47;90.91
81125;BME280;72192;52.114;5.424;2023-12-28T08:41:29;101050.22;;;10.47;91.01
81125;BME280;72192;52.114;5.424;2023-12-28T08:44:11;101047.03;;;10.44;90.90
81125;BME280;72192;52.114;5.424;2023-12-28T08:46:51;101039.75;;;10.44;91.18
81125;BME280;72192;52.114;5.424;2023-12-28T08:49:31;101072.84;;;10.46;90.94
81125;BME280;72192;52.114;5.424;2023-12-28T08:52:12;101080.09;;;10.46;91.07
81125;BME280;72192;52.114;5.424;2023-12-28T08:54:51;101072.84;;;10.46;91.24
81125;BME280;72192;52.114;5.424;2023-12-28T08:57:33;101066.59;;;10.46;91.38
81125;BME280;72192;52.114;5.424;2023-12-28T09:00:14;101087.69;;;10.50;91.39
81125;BME280;72192;52.114;5.424;2023-12-28T09:02:55;101074.22;;;10.50;90.98
81125;BME280;72192;52.114;5.424;2023-12-28T09:05:35;101097.50;;;10.51;90.94
81125;BME280;72192;52.114;5.424;2023-12-28T09:08:19;101084.84;;;10.52;90.93
81125;BME280;72192;52.114;5.424;2023-12-28T09:10:58;101094.78;;;10.51;90.94
81125;BME280;72192;52.114;5.424;2023-12-28T09:13:39;101082.53;;;10.57;90.48
81125;BME280;72192;52.114;5.424;2023-12-28T09:16:20;101087.78;;;10.58;90.09
81125;BME280;72192;52.114;5.424;2023-12-28T09:19:01;101084.06;;;10.59;90.11
81125;BME280;72192;52.114;5.424;2023-12-28T09:21:42;101081.53;;;10.58;90.53
81125;BME280;72192;52.114;5.424;2023-12-28T09:24:24;101093.84;;;10.60;90.07
81125;BME280;72192;52.114;5.424;2023-12-28T09:27:03;101095.53;;;10.61;89.80
81125;BME280;72192;52.114;5.424;2023-12-28T09:29:43;101091.88;;;10.62;90.15
81125;BME280;72192;52.114;5.424;2023-12-28T09:32:24;101106.34;;;10.61;90.14
81125;BME280;72192;52.114;5.424;2023-12-28T09:35:04;101094.25;;;10.66;89.56
81125;BME280;72192;52.114;5.424;2023-12-28T09:37:43;101094.97;;;10.76;89.09
81125;BME280;72192;52.114;5.424;2023-12-28T09:40:26;101103.59;;;10.79;88.86
81125;BME280;72192;52.114;5.424;2023-12-28T09:43:19;101101.28;;;10.84;88.61
81125;BME280;72192;52.114;5.424;2023-12-28T09:46:07;101108.22;;;10.87;88.54
81125;BME280;72192;52.114;5.424;2023-12-28T09:48:49;101117.84;;;10.89;88.01
81125;BME280;72192;52.114;5.424;2023-12-28T09:51:35;101105.91;;;10.92;88.08
81125;BME280;72192;52.114;5.424;2023-12-28T09:54:19;101122.78;;;10.94;88.18
81125;BME280;72192;52.114;5.424;2023-12-28T09:57:00;101116.56;;;10.94;87.72
81125;BME280;72192;52.114;5.424;2023-12-28T09:59:43;101121.78;;;10.95;88.08
81125;BME280;72192;52.114;5.424;2023-12-28T10:02:24;101127.88;;;10.97;87.54
81125;BME280;72192;52.114;5.424;2023-12-28T10:05:12;101123.63;;;10.95;87.61
81125;BME280;72192;52.114;5.424;2023-12-28T10:08:01;101130.56;;;10.97;87.58
81125;BME280;72192;52.114;5.424;2023-12-28T10:10:42;101121.78;;;10.95;87.50
81125;BME280;72192;52.114;5.424;2023-12-28T10:13:32;101125.69;;;11.01;86.49
81125;BME280;72192;52.114;5.424;2023-12-28T10:16:13;101135.97;;;10.97;86.87
81125;BME280;72192;52.114;5.424;2023-12-28T10:18:59;101134.56;;;10.85;88.60
81125;BME280;72192;52.114;5.424;2023-12-28T10:21:42;101137.88;;;10.79;88.66
81125;BME280;72192;52.114;5.424;2023-12-28T10:24:23;101135.84;;;10.81;87.96
81125;BME280;72192;52.114;5.424;2023-12-28T10:27:04;101137.09;;;10.86;88.45
81125;BME280;72192;52.114;5.424;2023-12-28T10:29:44;101138.63;;;10.89;87.88
81125;BME280;72192;52.114;5.424;2023-12-28T10:32:31;101120.03;;;10.86;87.58
81125;BME280;72192;52.114;5.424;2023-12-28T10:35:16;101112.78;;;10.86;87.58
81125;BME280;72192;52.114;5.424;2023-12-28T10:38:01;101116.31;;;10.87;87.65
81125;BME280;72192;52.114;5.424;2023-12-28T10:40:48;101124.25;;;10.88;87.46
81125;BME280;72192;52.114;5.424;2023-12-28T10:43:29;101122.97;;;10.93;87.34
81125;BME280;72192;52.114;5.424;2023-12-28T10:46:41;101132.25;;;10.98;87.42
81125;BME280;72192;52.114;5.424;2023-12-28T10:49:33;101142.44;;;11.04;86.90
81125;BME280;72192;52.114;5.424;2023-12-28T10:52:20;101124.03;;;11.08;86.82
81125;BME280;72192;52.114;5.424;2023-12-28T10:58:25;101109.00;;;11.05;86.91
81125;BME280;72192;52.114;5.424;2023-12-28T11:01:37;101121.00;;;11.03;86.69
81125;BME280;72192;52.114;5.424;2023-12-28T11:04:40;101118.47;;;11.01;86.55
81125;BME280;72192;52.114;5.424;2023-12-28T11:07:22;101111.19;;;11.02;86.69
81125;BME280;72192;52.114;5.424;2023-12-28T11:10:06;101120.28;;;11.01;86.66
81125;BME280;72192;52.114;5.424;2023-12-28T11:12:51;101105.09;;;11.00;87.01
81125;BME280;72192;52.114;5.424;2023-12-28T11:15:34;101118.75;;;10.98;86.63
81125;BME280;72192;52.114;5.424;2023-12-28T11:18:18;101120.78;;;10.96;86.91
81125;BME280;72192;52.114;5.424;2023-12-28T11:20:59;101104.06;;;10.93;86.72
81125;BME280;72192;52.114;5.424;2023-12-28T11:23:40;101110.66;;;10.98;86.37
81125;BME280;72192;52.114;5.424;2023-12-28T11:26:22;101117.59;;;11.01;86.21
81125;BME280;72192;52.114;5.424;2023-12-28T11:29:04;101101.88;;;10.96;86.84
81125;BME280;72192;52.114;5.424;2023-12-28T11:31:58;101106.78;;;11.01;86.43
81125;BME280;72192;52.114;5.424;2023-12-28T11:34:40;101102.25;;;11.01;86.91
81125;BME280;72192;52.114;5.424;2023-12-28T11:37:26;101109.00;;;11.05;86.54
81125;BME280;72192;52.114;5.424;2023-12-28T11:40:13;101093.47;;;11.07;86.24
81125;BME280;72192;52.114;5.424;2023-12-28T11:43:03;101101.41;;;11.09;86.56
81125;BME280;72192;52.114;5.424;2023-12-28T11:45:56;101088.91;;;11.08;86.07
81125;BME280;72192;52.114;5.424;2023-12-28T11:48:38;101098.88;;;11.07;86.48
81125;BME280;72192;52.114;5.424;2023-12-28T11:51:19;101105.13;;;11.08;86.18
81125;BME280;72192;52.114;5.424;2023-12-28T11:54:09;101108.00;;;11.06;86.03
81125;BME280;72192;52.114;5.424;2023-12-28T11:56:57;101098.84;;;10.99;86.28
81125;BME280;72192;52.114;5.424;2023-12-28T11:59:38;101111.88;;;11.04;87.21
81125;BME280;72192;52.114;5.424;2023-12-28T12:02:22;101115.09;;;11.07;86.10
81125;BME280;72192;52.114;5.424;2023-12-28T12:05:07;101102.25;;;11.09;86.44
81125;BME280;72192;52.114;5.424;2023-12-28T12:07:54;101100.97;;;11.13;86.21
81125;BME280;72192;52.114;5.424;2023-12-28T12:10:36;101094.69;;;11.13;86.25
81125;BME280;72192;52.114;5.424;2023-12-28T12:13:19;101085.88;;;11.11;85.92
81125;BME280;72192;52.114;5.424;2023-12-28T12:16:04;101095.84;;;11.10;86.50
81125;BME280;72192;52.114;5.424;2023-12-28T12:18:44;101099.41;;;11.11;86.43
81125;BME280;72192;52.114;5.424;2023-12-28T12:21:27;101090.31;;;11.12;86.60
81125;BME280;72192;52.114;5.424;2023-12-28T12:24:08;101089.13;;;11.14;86.68
81125;BME280;72192;52.114;5.424;2023-12-28T12:26:51;101079.34;;;11.13;86.73
81125;BME280;72192;52.114;5.424;2023-12-28T12:29:33;101079.00;;;11.16;86.37
81125;BME280;72192;52.114;5.424;2023-12-28T12:32:13;101077.31;;;11.15;86.50
81125;BME280;72192;52.114;5.424;2023-12-28T12:34:54;101076.78;;;11.12;85.88
81125;BME280;72192;52.114;5.424;2023-12-28T12:37:34;101059.75;;;11.11;86.41
81125;BME280;72192;52.114;5.424;2023-12-28T12:40:20;101078.78;;;11.10;86.31
81125;BME280;72192;52.114;5.424;2023-12-28T12:43:00;101067.97;;;11.10;86.07
81125;BME280;72192;52.114;5.424;2023-12-28T12:45:40;101067.13;;;11.09;85.72
81125;BME280;72192;52.114;5.424;2023-12-28T12:48:20;101067.69;;;11.13;85.55
81125;BME280;72192;52.114;5.424;2023-12-28T12:51:03;101080.34;;;11.12;85.69
81125;BME280;72192;52.114;5.424;2023-12-28T12:53:43;101084.06;;;11.11;85.76
81125;BME280;72192;52.114;5.424;2023-12-28T12:56:23;101075.41;;;11.08;85.66
81125;BME280;72192;52.114;5.424;2023-12-28T12:59:05;101066.63;;;11.06;85.78
81125;BME280;72192;52.114;5.424;2023-12-28T13:01:45;101066.97;;;11.03;85.77
81125;BME280;72192;52.114;5.424;2023-12-28T13:04:32;101050.56;;;11.04;85.69
81125;BME280;72192;52.114;5.424;2023-12-28T13:07:11;101052.94;;;11.07;85.67
81125;BME280;72192;52.114;5.424;2023-12-28T13:09:51;101052.25;;;11.05;85.43
81125;BME280;72192;52.114;5.424;2023-12-28T13:12:32;101048.03;;;11.03;85.82
81125;BME280;72192;52.114;5.424;2023-12-28T13:15:11;101046.13;;;10.95;85.82
81125;BME280;72192;52.114;5.424;2023-12-28T13:17:51;101012.50;;;10.89;85.95
81125;BME280;72192;52.114;5.424;2023-12-28T13:20:20;101027.19;;;10.87;85.94
81125;BME280;72192;52.114;5.424;2023-12-28T13:22:59;101042.03;;;10.83;85.93
81125;BME280;72192;52.114;5.424;2023-12-28T13:25:39;101041.38;;;10.89;85.04
81125;BME280;72192;52.114;5.424;2023-12-28T13:28:19;101032.41;;;10.88;85.61
81125;BME280;72192;52.114;5.424;2023-12-28T13:30:59;101030.56;;;10.89;85.71
81125;BME280;72192;52.114;5.424;2023-12-28T13:33:40;101041.19;;;10.90;85.74
81125;BME280;72192;52.114;5.424;2023-12-28T13:36:20;101053.88;;;10.90;85.57
81125;BME280;72192;52.114;5.424;2023-12-28T13:38:59;101054.03;;;10.88;85.87
81125;BME280;72192;52.114;5.424;2023-12-28T13:41:40;101066.53;;;10.89;85.98
81125;BME280;72192;52.114;5.424;2023-12-28T13:44:21;101053.03;;;10.89;85.97
81125;BME280;72192;52.114;5.424;2023-12-28T13:47:03;101043.91;;;10.90;85.61
81125;BME280;72192;52.114;5.424;2023-12-28T13:49:47;101044.75;;;10.91;85.50
81125;BME280;72192;52.114;5.424;2023-12-28T13:52:26;101040.91;;;10.94;85.29
81125;BME280;72192;52.114;5.424;2023-12-28T13:55:08;101045.75;;;10.90;85.86
81125;BME280;72192;52.114;5.424;2023-12-28T13:57:48;101052.34;;;10.87;85.87
81125;BME280;72192;52.114;5.424;2023-12-28T14:00:29;101052.34;;;10.87;86.04
81125;BME280;72192;52.114;5.424;2023-12-28T14:03:09;101057.22;;;10.84;86.94
81125;BME280;72192;52.114;5.424;2023-12-28T14:05:48;101053.28;;;10.78;86.77
81125;BME280;72192;52.114;5.424;2023-12-28T14:08:29;101021.38;;;10.74;87.71
81125;BME280;72192;52.114;5.424;2023-12-28T14:11:08;101038.06;;;10.69;87.50
81125;BME280;72192;52.114;5.424;2023-12-28T14:13:48;101042.59;;;10.69;87.19
81125;BME280;72192;52.114;5.424;2023-12-28T14:16:28;101037.59;;;10.74;87.03
81125;BME280;72192;52.114;5.424;2023-12-28T14:19:08;101037.75;;;10.72;87.13